Time;durP1;ratioP1;P1;durP2;ratioP2;P2;SDS_P1;SDS_P2;PMS_P1;PMS_P2;Temp;Humidity;BMP_temperature;BMP_pressure;BME280_temperature;BME280_humidity;BME280_pressure;Samples;Min_cycle;Max_cycle;Signal;HPM_P1;HPM_P2
2021/12/20 00:02:09;;;;;;;13.65;4.35;;;6.00;99.90;;;6.78;100.00;101569.22;4993323;28;20081;-76
2021/12/20 00:04:36;;;;;;;14.05;4.22;;;6.00;99.90;;;6.83;100.00;101568.28;4994754;28;20034;-77
2021/12/20 00:07:03;;;;;;;17.15;5.05;;;6.00;99.90;;;6.80;100.00;101574.47;4994518;28;20045;-77
2021/12/20 00:09:30;;;;;;;16.67;4.65;;;6.00;99.90;;;6.79;100.00;101565.31;4994173;28;20029;-77
2021/12/20 00:11:56;;;;;;;14.65;3.88;;;5.90;99.90;;;6.72;100.00;101564.09;4993792;28;20118;-79
2021/12/20 00:14:25;;;;;;;15.57;3.20;;;5.90;99.90;;;6.72;100.00;101564.09;4994214;28;20026;-77
2021/12/20 00:16:51;;;;;;;20.17;3.38;;;5.90;99.90;;;6.71;100.00;101554.13;4976366;28;20135;-76
2021/12/20 00:19:17;;;;;;;10.80;3.50;;;5.90;99.90;;;6.66;100.00;101555.03;4993963;28;20026;-78
2021/12/20 00:21:43;;;;;;;11.13;3.55;;;5.90;99.90;;;6.65;100.00;101555.34;4998998;28;20068;-77
2021/12/20 00:24:12;;;;;;;12.63;4.60;;;5.90;99.90;;;6.64;100.00;101556.50;5013117;28;20232;-78
2021/12/20 00:26:38;;;;;;;12.77;2.90;;;5.90;99.90;;;6.63;100.00;101552.91;5013622;28;20109;-79
2021/12/20 00:29:07;;;;;;;9.13;4.15;;;5.90;99.90;;;6.59;100.00;101546.31;5014089;28;20065;-77
2021/12/20 00:31:33;;;;;;;16.63;4.03;;;5.80;99.90;;;6.60;100.00;101549.91;4995892;28;20057;-79
2021/12/20 00:33:59;;;;;;;14.38;3.55;;;5.80;99.90;;;6.58;100.00;101547.44;5013480;28;20079;-77
2021/12/20 00:36:27;;;;;;;12.90;4.15;;;5.80;99.90;;;6.62;100.00;101548.47;4995793;28;20038;-77
2021/12/20 00:41:37;;;;;;;13.77;3.88;;;5.90;99.90;;;6.68;100.00;101549.16;5015516;28;20584;-78
2021/12/20 00:44:03;;;;;;;12.10;4.50;;;5.90;99.90;;;6.69;100.00;101557.19;5016109;28;20101;-79
2021/12/20 00:46:29;;;;;;;11.60;3.60;;;5.90;99.90;;;6.64;100.00;101550.94;5003370;28;20350;-77
2021/12/20 00:48:55;;;;;;;14.90;4.50;;;5.90;99.90;;;6.68;100.00;101552.78;5019492;28;20034;-76
2021/12/20 00:51:21;;;;;;;13.27;4.20;;;5.90;99.90;;;6.68;100.00;101561.09;5019641;28;20114;-79
2021/12/20 00:53:47;;;;;;;14.38;4.18;;;5.90;99.90;;;6.64;100.00;101549.00;5019674;28;20026;-80
2021/12/20 00:56:19;;;;;;;16.20;4.22;;;5.90;99.90;;;6.62;100.00;101542.91;5000292;28;20025;-78
2021/12/20 00:58:45;;;;;;;19.15;5.00;;;5.90;99.90;;;6.66;100.00;101545.88;5017931;28;20065;-79
2021/12/20 01:01:11;;;;;;;17.40;4.43;;;5.90;99.90;;;6.61;100.00;101546.84;5016622;28;20072;-77
2021/12/20 01:03:40;;;;;;;15.10;4.22;;;5.90;99.90;;;6.61;100.00;101534.91;5003511;28;20030;-77
2021/12/20 01:06:07;;;;;;;15.32;4.22;;;5.80;99.90;;;6.66;100.00;101552.28;5006353;28;20048;-77
2021/12/20 01:08:36;;;;;;;14.98;4.78;;;5.90;99.90;;;6.63;100.00;101552.06;4996116;28;20121;-76
2021/12/20 01:11:04;;;;;;;18.20;5.15;;;5.90;99.90;;;6.62;100.00;101555.97;5011691;28;20109;-77
2021/12/20 01:13:33;;;;;;;18.38;4.28;;;5.90;99.90;;;6.61;100.00;101551.56;5027987;28;20080;-76
2021/12/20 01:16:02;;;;;;;14.68;3.92;;;5.80;99.90;;;6.64;100.00;101549.00;5035209;28;20058;-77
2021/12/20 01:18:29;;;;;;;12.05;3.60;;;5.90;99.90;;;6.61;100.00;101555.16;4996244;28;20041;-79
2021/12/20 01:20:55;;;;;;;17.90;5.93;;;5.80;99.90;;;6.59;100.00;101560.19;4996357;28;20575;-79
2021/12/20 01:23:21;;;;;;;12.38;3.70;;;5.80;99.90;;;6.59;100.00;101559.34;4976991;28;20065;-79
2021/12/20 01:25:47;;;;;;;19.63;3.55;;;5.80;99.90;;;6.61;100.00;101555.16;4993222;28;20086;-79
2021/12/20 01:28:28;;;;;;;16.35;4.68;;;5.80;99.90;;;6.59;100.00;101551.84;4995088;28;20026;-79
2021/12/20 01:30:57;;;;;;;18.15;3.85;;;5.80;99.90;;;6.56;100.00;101555.25;5000133;28;20490;-78
2021/12/20 01:33:23;;;;;;;13.13;3.72;;;5.80;99.90;;;6.55;100.00;101564.72;5000249;28;20029;-76
2021/12/20 01:35:49;;;;;;;15.80;4.13;;;5.80;99.90;;;6.50;100.00;101566.78;5000788;28;20113;-77
2021/12/20 01:38:15;;;;;;;13.65;4.07;;;5.70;99.90;;;6.50;100.00;101564.00;4999724;28;20112;-78
2021/12/20 01:40:43;;;;;;;16.20;3.80;;;5.70;99.90;;;6.48;100.00;101569.88;5000295;28;20106;-79
2021/12/20 01:43:12;;;;;;;15.38;3.40;;;5.70;99.90;;;6.49;100.00;101568.72;5003492;28;20045;-77
2021/12/20 01:45:38;;;;;;;18.02;3.63;;;5.70;99.90;;;6.56;100.00;101562.75;4985775;28;20077;-76
2021/12/20 01:48:11;;;;;;;13.30;3.75;;;5.70;99.90;;;6.55;100.00;101561.94;4999569;28;20023;-77
2021/12/20 01:53:25;;;;;;;17.83;3.25;;;5.70;99.90;;;6.57;100.00;101562.47;5001140;28;20026;-78
2021/12/20 01:55:55;;;;;;;20.45;3.85;;;5.70;99.90;;;6.54;100.00;101565.03;5000782;28;20088;-77
2021/12/20 01:58:24;;;;;;;18.77;4.10;;;5.70;99.90;;;6.54;100.00;101570.59;4982821;28;20125;-78
2021/12/20 02:03:56;;;;;;;21.63;3.67;;;5.70;99.90;;;6.49;100.00;101562.34;5000618;28;20560;-78
2021/12/20 02:06:45;;;;;;;18.70;3.97;;;5.70;99.90;;;6.45;100.00;101561.34;4999979;28;20042;-79
2021/12/20 02:09:17;;;;;;;16.92;3.20;;;5.70;99.90;;;6.43;100.00;101566.34;4982706;28;20027;-77
2021/12/20 02:11:48;;;;;;;21.95;3.72;;;5.70;99.90;;;6.43;100.00;101566.34;4999965;28;20030;-76
2021/12/20 02:14:18;;;;;;;30.20;4.53;;;5.70;99.90;;;6.44;100.00;101565.22;4999562;28;20121;-76
2021/12/20 02:16:46;;;;;;;15.27;3.58;;;5.70;99.90;;;6.41;100.00;101561.13;5000207;28;20030;-77
2021/12/20 02:19:17;;;;;;;25.77;4.63;;;5.70;99.90;;;6.37;100.00;101568.41;5000888;28;20077;-78
2021/12/20 02:21:45;;;;;;;24.27;3.85;;;5.60;99.90;;;6.35;100.00;101574.28;5006467;28;20049;-78
2021/12/20 02:24:14;;;;;;;21.40;3.38;;;5.60;99.90;;;6.36;100.00;101566.75;5018297;28;20538;-78
2021/12/20 02:26:40;;;;;;;19.95;3.55;;;5.60;99.90;;;6.34;100.00;101572.63;5020037;28;20489;-77
2021/12/20 02:29:12;;;;;;;21.50;3.58;;;5.60;99.90;;;6.37;100.00;101565.63;5002548;28;20044;-77
2021/12/20 02:39:40;;;;;;;18.90;3.28;;;5.50;99.90;;;6.18;100.00;101562.13;5019826;28;20053;-77
2021/12/20 02:42:11;;;;;;;23.23;3.95;;;5.50;99.90;;;6.15;100.00;101558.03;5018727;28;20058;-77
2021/12/20 02:45:04;;;;;;;26.55;3.65;;;5.50;99.90;;;6.20;100.00;101549.59;5019629;28;20029;-77
2021/12/20 02:47:30;;;;;;;19.83;3.15;;;5.50;99.90;;;6.14;100.00;101545.28;5019386;28;20057;-79
2021/12/20 02:49:58;;;;;;;25.40;4.05;;;5.50;99.90;;;6.20;100.00;101552.38;5018943;28;20030;-79
2021/12/20 02:52:33;;;;;;;23.85;4.70;;;5.50;99.90;;;6.21;100.00;101554.03;5017603;28;20021;-77
2021/12/20 02:55:08;;;;;;;19.40;3.97;;;5.50;99.90;;;6.23;100.00;101553.69;5001735;28;20026;-78
2021/12/20 02:57:37;;;;;;;24.48;4.18;;;5.50;99.90;;;6.22;100.00;101557.63;5019170;28;20038;-78
2021/12/20 03:00:10;;;;;;;17.55;3.83;;;5.40;99.90;;;6.18;100.00;101562.97;5019526;28;20106;-77
2021/12/20 03:02:36;;;;;;;21.55;4.43;;;5.40;99.90;;;6.16;100.00;101558.84;5017827;28;20036;-77
2021/12/20 03:05:06;;;;;;;22.15;3.35;;;5.40;99.90;;;6.16;100.00;101561.63;5016695;28;20030;-78
2021/12/20 03:07:41;;;;;;;25.85;5.03;;;5.40;99.90;;;6.16;100.00;101558.84;5017218;28;20453;-75
2021/12/20 03:10:09;;;;;;;35.78;5.35;;;5.40;99.90;;;6.15;100.00;101551.66;5017877;28;20022;-77
2021/12/20 03:12:35;;;;;;;17.23;4.50;;;5.40;99.90;;;6.15;100.00;101559.97;5018188;28;20034;-79
2021/12/20 03:15:10;;;;;;;20.33;3.63;;;5.40;99.90;;;6.12;100.00;101543.94;5017962;28;20025;-78
2021/12/20 03:17:36;;;;;;;18.45;3.85;;;5.40;99.90;;;6.07;100.00;101555.94;5018868;28;20161;-79
2021/12/20 03:20:05;;;;;;;20.48;3.67;;;5.40;99.90;;;6.07;100.00;101549.59;5001418;28;20042;-77
2021/12/20 03:22:34;;;;;;;29.70;4.72;;;5.30;99.90;;;6.07;100.00;101555.94;5006024;28;20409;-78
2021/12/20 03:25:00;;;;;;;28.15;5.03;;;5.30;99.90;;;6.09;100.00;101552.88;4998015;28;20058;-76
2021/12/20 03:27:26;;;;;;;27.15;3.70;;;5.30;99.90;;;6.07;100.00;101555.94;4997539;28;20113;-78
2021/12/20 03:29:52;;;;;;;18.80;4.60;;;5.30;99.90;;;6.07;100.00;101560.69;4980762;28;20039;-78
2021/12/20 03:32:18;;;;;;;28.38;4.05;;;5.30;99.90;;;6.07;100.00;101561.50;4998119;28;20540;-79
2021/12/20 03:34:46;;;;;;;22.75;4.40;;;5.30;99.90;;;6.05;100.00;101549.06;4981008;28;20026;-79
2021/12/20 03:37:12;;;;;;;26.48;4.53;;;5.30;99.90;;;6.06;100.00;101567.38;4999184;28;20045;-77
2021/12/20 03:39:38;;;;;;;24.65;4.32;;;5.30;99.90;;;6.06;100.00;101559.88;4999459;28;20062;-77
2021/12/20 03:42:05;;;;;;;25.85;4.78;;;5.30;99.90;;;6.05;100.00;101562.94;4997599;28;20034;-80
2021/12/20 03:44:33;;;;;;;21.80;4.28;;;5.30;99.90;;;5.99;100.00;101562.22;4999360;28;20038;-77
2021/12/20 03:47:00;;;;;;;30.10;5.22;;;5.30;99.90;;;6.00;100.00;101554.72;4998641;28;20057;-77
2021/12/20 03:49:29;;;;;;;36.17;4.38;;;5.30;99.90;;;6.01;100.00;101561.91;4998094;28;20030;-79
2021/12/20 03:51:55;;;;;;;26.88;5.32;;;5.30;99.90;;;5.97;100.00;101558.94;4998967;28;20034;-78
2021/12/20 03:54:22;;;;;;;22.60;3.72;;;5.20;99.90;;;5.95;100.00;101552.03;4999212;28;20057;-77
2021/12/20 03:56:48;;;;;;;23.50;4.55;;;5.20;99.90;;;5.94;100.00;101558.72;4997555;28;20121;-79
2021/12/20 03:59:14;;;;;;;24.73;3.70;;;5.20;99.90;;;5.98;100.00;101556.97;4998261;28;20559;-77
2021/12/20 04:01:40;;;;;;;23.08;3.70;;;5.20;99.90;;;5.95;100.00;101552.84;4998534;28;20031;-79
2021/12/20 04:04:11;;;;;;;21.80;3.03;;;5.20;99.90;;;5.94;100.00;101555.94;4998666;28;20057;-79
2021/12/20 04:06:37;;;;;;;15.77;3.55;;;5.20;99.90;;;5.95;100.00;101555.63;4996936;28;20489;-78
2021/12/20 04:09:07;;;;;;;26.65;4.88;;;5.20;99.90;;;5.98;100.00;101562.50;4998809;28;20045;-77
2021/12/20 04:11:36;;;;;;;21.27;3.55;;;5.20;99.90;;;5.96;100.00;101564.78;4999128;28;20068;-76
2021/12/20 04:14:02;;;;;;;25.58;5.22;;;5.20;99.90;;;5.97;100.00;101561.72;4997922;28;20027;-77
2021/12/20 04:16:29;;;;;;;29.08;4.63;;;5.20;99.90;;;6.03;100.00;101562.44;4998230;28;20512;-77
2021/12/20 04:18:56;;;;;;;24.83;4.80;;;5.20;99.90;;;6.00;100.00;101558.31;4997514;28;20034;-77
2021/12/20 04:21:22;;;;;;;19.80;4.40;;;5.20;99.90;;;6.02;100.00;101564.38;5000309;28;20037;-77
2021/12/20 04:23:54;;;;;;;19.60;4.75;;;5.30;99.90;;;6.10;100.00;101574.75;5017983;28;20033;-79
2021/12/20 04:26:20;;;;;;;35.70;5.82;;;5.30;99.90;;;6.15;100.00;101571.06;5017517;28;20088;-79
2021/12/20 04:28:50;;;;;;;23.33;4.70;;;5.30;99.90;;;6.25;100.00;101562.56;5018476;28;20072;-79
2021/12/20 04:31:16;;;;;;;23.77;5.00;;;5.40;99.90;;;6.20;100.00;101566.25;5017932;28;20032;-79
2021/12/20 04:33:45;;;;;;;27.00;6.72;;;5.40;99.90;;;6.16;100.00;101570.78;5019559;28;20029;-77
2021/12/20 04:36:11;;;;;;;26.45;6.70;;;5.40;99.90;;;6.05;100.00;101568.47;5018105;28;20072;-76
2021/12/20 04:38:37;;;;;;;34.00;8.18;;;5.40;99.90;;;6.07;100.00;101561.50;5017229;28;20042;-79
2021/12/20 04:41:03;;;;;;;25.98;6.25;;;5.40;99.90;;;6.16;100.00;101576.31;5025507;28;20029;-78
2021/12/20 04:43:29;;;;;;;64.72;18.38;;;5.40;99.90;;;6.13;100.00;101579.69;5023525;28;20030;-79
2021/12/20 04:45:55;;;;;;;201.68;64.60;;;5.40;99.90;;;6.10;100.00;101579.50;5016958;28;20037;-77
2021/12/20 04:48:20;;;;;;;45.30;13.00;;;5.30;99.90;;;6.04;100.00;101575.97;5017206;28;20045;-76
2021/12/20 04:50:47;;;;;;;32.05;8.52;;;5.30;99.90;;;5.97;100.00;101581.13;5033567;28;20471;-76
2021/12/20 04:53:16;;;;;;;38.90;8.70;;;5.30;99.90;;;5.88;100.00;101580.16;5032340;28;20026;-79
2021/12/20 04:55:42;;;;;;;31.10;7.55;;;5.20;99.90;;;5.80;100.00;101584.44;5017087;28;20514;-79
2021/12/20 04:58:09;;;;;;;34.60;7.03;;;5.10;99.90;;;5.69;100.00;101582.94;5017330;28;20037;-79
2021/12/20 05:00:37;;;;;;;44.80;11.27;;;5.00;99.90;;;5.53;100.00;101584.31;5017895;28;20030;-78
2021/12/20 05:03:05;;;;;;;97.18;28.80;;;4.90;99.90;;;5.52;100.00;101579.88;5015984;28;20049;-77
2021/12/20 05:05:31;;;;;;;66.70;22.63;;;4.80;99.90;;;5.42;100.00;101579.25;5014784;28;20112;-78
2021/12/20 05:07:57;;;;;;;73.13;26.15;;;4.70;99.90;;;5.29;100.00;101578.91;5016708;28;20029;-79
2021/12/20 05:10:29;;;;;;;83.82;28.23;;;4.60;99.90;;;5.19;100.00;101587.34;4999553;28;20030;-77
2021/12/20 05:13:19;;;;;;;42.08;10.10;;;4.50;99.90;;;5.09;100.00;101586.66;5016828;28;20145;-79
2021/12/20 05:15:45;;;;;;;39.78;8.35;;;4.40;99.90;;;5.02;100.00;101575.97;5018845;28;20064;-78
2021/12/20 05:18:11;;;;;;;40.17;7.15;;;4.40;99.90;;;4.98;100.00;101580.44;5001858;28;20560;-78
2021/12/20 05:20:38;;;;;;;42.13;9.13;;;4.30;99.90;;;4.87;100.00;101587.25;5018684;28;20109;-78
2021/12/20 05:23:08;;;;;;;45.70;13.10;;;4.20;99.90;;;4.71;100.00;101577.50;5001544;28;20057;-78
2021/12/20 05:25:36;;;;;;;32.38;8.63;;;4.10;99.90;;;4.67;100.00;101577.28;4982387;28;20030;-76
2021/12/20 05:28:03;;;;;;;30.38;6.30;;;4.00;99.90;;;4.53;100.00;101581.88;4999921;28;20516;-78
2021/12/20 05:30:32;;;;;;;29.77;6.97;;;3.90;99.90;;;4.39;100.00;101582.88;5000437;28;20037;-78
2021/12/20 05:32:58;;;;;;;27.48;9.40;;;3.80;99.90;;;4.29;100.00;101589.34;4999916;28;20034;-79
2021/12/20 05:35:25;;;;;;;36.08;10.15;;;3.70;99.90;;;4.18;100.00;101585.03;4999196;28;20113;-78
2021/12/20 05:37:54;;;;;;;32.78;6.35;;;3.60;99.90;;;4.17;100.00;101589.75;5001379;28;20027;-78
2021/12/20 05:40:20;;;;;;;32.75;7.20;;;3.50;99.90;;;4.05;100.00;101585.72;5008127;28;20110;-79
2021/12/20 05:42:48;;;;;;;24.13;6.22;;;3.50;99.90;;;3.93;100.00;101590.81;5010803;28;20044;-75
2021/12/20 05:45:16;;;;;;;31.65;8.05;;;3.40;99.90;;;3.86;100.00;101593.09;5007034;28;20555;-80
2021/12/20 05:47:43;;;;;;;25.50;6.60;;;3.30;99.90;;;3.81;100.00;101595.94;4999174;28;20397;-78
2021/12/20 05:50:12;;;;;;;25.25;6.95;;;3.20;99.90;;;3.76;100.00;101604.28;4979439;28;20038;-78
2021/12/20 05:52:38;;;;;;;28.90;7.78;;;3.20;99.90;;;3.70;100.00;101606.22;4980372;28;20441;-78
2021/12/20 05:55:07;;;;;;;25.88;6.43;;;3.10;99.90;;;3.69;100.00;101607.38;4997225;28;20098;-77
2021/12/20 05:57:34;;;;;;;23.10;5.68;;;3.10;99.90;;;3.63;100.00;101605.72;4998510;28;20034;-80
2021/12/20 06:00:07;;;;;;;32.42;5.05;;;3.00;99.90;;;3.64;100.00;101622.03;4998129;28;20038;-76
2021/12/20 06:02:33;;;;;;;26.77;4.15;;;3.00;99.90;;;3.65;100.00;101620.09;4998249;28;20034;-76
2021/12/20 06:04:58;;;;;;;28.10;5.00;;;3.00;99.90;;;3.69;100.00;101619.22;4997574;28;20121;-78
2021/12/20 06:07:28;;;;;;;24.15;4.85;;;3.10;99.90;;;3.75;100.00;101611.72;4997454;28;20056;-78
2021/12/20 06:09:57;;;;;;;31.08;4.78;;;3.10;99.90;;;3.73;100.00;101611.19;4998607;28;20537;-79
2021/12/20 06:12:23;;;;;;;22.38;4.60;;;3.10;99.90;;;3.64;100.00;101616.50;4996214;28;20026;-79
2021/12/20 06:14:48;;;;;;;28.58;4.57;;;3.00;99.90;;;3.57;100.00;101620.69;4997347;28;20113;-78
2021/12/20 06:17:17;;;;;;;30.23;5.72;;;3.00;99.90;;;3.61;100.00;101624.53;5002336;28;20034;-79
2021/12/20 06:19:43;;;;;;;28.27;5.07;;;3.00;99.90;;;3.57;100.00;101621.53;4986166;28;20026;-78
2021/12/20 06:22:10;;;;;;;19.95;3.97;;;3.00;99.90;;;3.53;100.00;101633.47;5012338;28;20426;-78
2021/12/20 06:24:39;;;;;;;35.83;6.20;;;2.90;99.90;;;3.46;100.00;101631.03;5005881;28;20192;-77
2021/12/20 06:27:05;;;;;;;27.77;4.38;;;2.90;99.90;;;3.42;100.00;101631.88;5023545;28;20034;-79
2021/12/20 06:29:32;;;;;;;25.88;5.07;;;2.80;99.90;;;3.36;100.00;101633.03;5021594;28;20033;-79
2021/12/20 06:31:58;;;;;;;33.83;5.30;;;2.80;99.90;;;3.35;100.00;101634.94;5022206;28;20022;-77
2021/12/20 06:34:23;;;;;;;28.35;5.25;;;2.80;99.90;;;3.38;100.00;101634.38;5004715;28;20060;-77
2021/12/20 06:36:49;;;;;;;30.75;6.15;;;2.80;99.90;;;3.43;100.00;101644.56;5022047;28;20038;-77
2021/12/20 06:39:16;;;;;;;29.08;6.53;;;2.80;99.90;;;3.48;100.00;101645.34;5004456;28;20034;-77
2021/12/20 06:41:45;;;;;;;24.63;5.97;;;2.80;99.90;;;3.46;100.00;101642.06;5021480;28;20087;-79
2021/12/20 06:44:11;;;;;;;35.65;6.50;;;2.80;99.90;;;3.53;100.00;101645.31;5020566;28;20033;-79
2021/12/20 06:46:46;;;;;;;25.15;5.47;;;2.80;99.90;;;3.50;100.00;101656.13;5020153;28;20060;-80
2021/12/20 06:49:21;;;;;;;23.67;5.15;;;2.80;99.90;;;3.43;100.00;101656.44;5019375;28;20034;-78
2021/12/20 06:51:47;;;;;;;31.05;5.70;;;2.80;99.90;;;3.35;100.00;101643.22;5021469;28;20076;-79
2021/12/20 06:54:18;;;;;;;30.77;5.63;;;2.80;99.90;;;3.28;100.00;101652.94;5024049;28;20025;-79
2021/12/20 06:56:45;;;;;;;29.75;5.03;;;2.70;99.90;;;3.21;100.00;101658.81;5019632;28;20046;-77
2021/12/20 06:59:12;;;;;;;33.42;6.72;;;2.60;99.90;;;3.10;100.00;101651.66;5018657;28;20029;-76
2021/12/20 07:01:43;;;;;;;24.80;5.00;;;2.50;99.90;;;3.05;100.00;101648.94;5019242;28;20033;-78
2021/12/20 07:04:16;;;;;;;36.25;5.95;;;2.50;99.90;;;2.90;100.00;101649.81;5000158;28;20026;-77
2021/12/20 07:06:42;;;;;;;18.08;3.83;;;2.40;99.90;;;2.77;100.00;101647.69;5016215;28;20073;-77
2021/12/20 07:09:11;;;;;;;23.23;4.97;;;2.20;99.90;;;2.62;100.00;101651.31;5016587;28;20473;-76
2021/12/20 07:11:37;;;;;;;24.02;4.65;;;2.10;99.90;;;2.50;100.00;101655.50;5016135;28;20455;-78
2021/12/20 07:14:03;;;;;;;26.05;5.15;;;2.00;99.90;;;2.42;100.00;101650.56;5016624;28;20030;-78
2021/12/20 07:16:32;;;;;;;36.10;7.10;;;1.90;99.90;;;2.51;100.00;101654.38;5014741;28;20030;-78
2021/12/20 07:18:59;;;;;;;24.13;6.55;;;1.90;99.90;;;2.50;100.00;101653.59;5015934;28;20411;-76
2021/12/20 07:21:25;;;;;;;34.40;6.75;;;1.90;99.90;;;2.53;100.00;101654.94;5013861;28;20037;-76
2021/12/20 07:23:51;;;;;;;26.27;5.57;;;1.90;99.90;;;2.60;100.00;101661.00;4995853;28;20088;-76
2021/12/20 07:26:17;;;;;;;29.65;5.65;;;2.00;99.90;;;2.67;100.00;101670.59;4996850;28;20034;-78
2021/12/20 07:28:44;;;;;;;25.77;5.32;;;2.00;99.90;;;2.74;100.00;101667.56;4995701;28;20034;-77
2021/12/20 07:31:13;;;;;;;25.02;6.88;;;2.10;99.90;;;2.70;100.00;101671.97;4996349;28;20528;-76
2021/12/20 07:33:42;;;;;;;26.88;5.60;;;2.10;99.90;;;2.66;100.00;101666.19;4996334;28;20023;-80
2021/12/20 07:36:08;;;;;;;30.90;5.53;;;2.10;99.90;;;2.72;100.00;101678.06;4996902;28;20030;-76
2021/12/20 07:38:35;;;;;;;18.23;6.00;;;2.10;99.90;;;2.49;100.00;101671.22;4994441;28;20030;-77
2021/12/20 07:41:02;;;;;;;28.05;5.65;;;1.90;99.90;;;2.28;100.00;101664.06;4994414;28;20101;-77
2021/12/20 07:43:29;;;;;;;46.55;11.63;;;1.70;99.90;;;2.28;100.00;101660.53;4996379;28;20062;-78
2021/12/20 07:45:55;;;;;;;42.35;9.38;;;1.70;99.90;;;2.26;100.00;101673.75;4995605;28;20433;-78
2021/12/20 07:48:21;;;;;;;25.10;5.97;;;1.70;99.90;;;2.16;100.00;101679.25;4978106;28;20033;-78
2021/12/20 07:50:49;;;;;;;27.00;7.00;;;1.60;99.90;;;2.06;100.00;101677.34;4996309;28;20077;-78
2021/12/20 07:53:15;;;;;;;29.73;7.03;;;1.50;99.90;;;1.95;100.00;101671.03;4995646;28;20409;-78
2021/12/20 07:55:42;;;;;;;26.00;6.93;;;1.40;99.90;;;1.93;100.00;101675.13;4977461;28;20045;-77
2021/12/20 07:58:08;;;;;;;24.45;5.53;;;1.40;99.90;;;1.93;100.00;101677.88;4995326;28;20064;-77
2021/12/20 08:00:35;;;;;;;24.65;6.50;;;1.40;99.90;;;2.00;100.00;101684.78;4996050;28;20069;-77
2021/12/20 08:03:02;;;;;;;24.38;6.70;;;1.40;99.90;;;2.01;100.00;101675.44;4995185;28;20424;-78
2021/12/20 08:05:29;;;;;;;26.50;6.43;;;1.40;99.90;;;2.06;100.00;101677.34;4996067;28;20072;-77
2021/12/20 08:07:55;;;;;;;27.58;5.90;;;1.50;99.90;;;2.15;100.00;101683.13;4999083;28;20018;-81
2021/12/20 08:10:27;;;;;;;27.05;6.63;;;1.50;99.90;;;2.23;100.00;101672.38;4998428;28;20034;-78
2021/12/20 08:12:54;;;;;;;18.13;5.18;;;1.50;99.90;;;2.31;100.00;101684.78;4996265;28;20019;-77
2021/12/20 08:15:26;;;;;;;18.27;4.63;;;1.60;99.90;;;2.36;100.00;101687.50;4995473;28;20034;-78
2021/12/20 08:17:57;;;;;;;16.02;4.20;;;1.70;99.90;;;2.44;100.00;101693.28;4996570;28;20026;-77
2021/12/20 08:20:25;;;;;;;26.95;5.25;;;1.70;99.90;;;2.51;100.00;101688.31;4996611;28;20026;-78
2021/12/20 08:22:54;;;;;;;18.67;5.18;;;1.80;99.90;;;2.60;100.00;101688.56;5010315;28;20030;-79
2021/12/20 08:25:21;;;;;;;25.35;5.25;;;1.90;99.90;;;2.67;100.00;101695.44;4998653;28;20214;-76
2021/12/20 08:27:51;;;;;;;24.92;4.80;;;2.00;99.90;;;2.77;100.00;101707.53;5016521;28;20030;-77
2021/12/20 08:30:21;;;;;;;22.63;5.47;;;2.00;99.90;;;2.89;100.00;101702.56;5032812;28;20022;-77
2021/12/20 08:32:47;;;;;;;26.20;6.18;;;2.10;99.90;;;3.01;100.00;101703.88;5027284;28;20117;-80
2021/12/20 08:35:15;;;;;;;27.80;7.28;;;2.20;99.90;;;3.16;100.00;101708.50;5018333;28;20113;-81
2021/12/20 08:37:43;;;;;;;26.05;5.45;;;2.40;99.90;;;3.19;100.00;101714.28;5015032;28;20030;-81
2021/12/20 08:40:14;;;;;;;22.77;5.45;;;2.50;99.90;;;3.26;100.00;101713.16;5012741;28;20400;-84
2021/12/20 08:42:45;;;;;;;30.20;6.45;;;2.50;99.90;;;3.48;100.00;101721.88;4994663;28;20026;-79
2021/12/20 08:45:15;;;;;;;23.63;6.80;;;2.70;99.90;;;3.64;100.00;101715.97;5012537;28;20064;-79
2021/12/20 08:47:41;;;;;;;15.48;5.05;;;2.80;99.90;;;3.79;100.00;101734.38;4994822;28;20034;-79
2021/12/20 08:50:16;;;;;;;18.38;6.22;;;2.90;99.90;;;3.96;100.00;101731.22;5012699;28;20072;-79
2021/12/20 08:52:42;;;;;;;24.75;5.90;;;3.10;99.90;;;4.09;100.00;101730.56;5012338;28;20125;-79
2021/12/20 08:55:10;;;;;;;18.25;4.95;;;3.20;99.90;;;4.20;100.00;101738.50;4994674;28;20477;-80
2021/12/20 08:57:45;;;;;;;21.70;5.50;;;3.30;99.90;;;4.38;100.00;101728.66;5012562;28;20054;-79
2021/12/20 09:00:26;;;;;;;28.70;6.15;;;3.40;99.90;;;4.53;100.00;101744.28;5012802;28;20037;-79
2021/12/20 09:02:52;;;;;;;20.73;6.95;;;3.60;99.90;;;4.64;100.00;101743.06;5012158;28;20440;-79
2021/12/20 09:05:20;;;;;;;31.60;8.75;;;3.70;99.90;;;4.81;100.00;101754.53;5013096;28;20034;-77
2021/12/20 09:07:47;;;;;;;22.83;7.60;;;3.80;99.90;;;4.97;100.00;101749.66;5013262;28;20034;-78
2021/12/20 09:10:21;;;;;;;25.42;6.07;;;4.00;99.90;;;5.10;100.00;101746.19;5012562;28;20546;-86
2021/12/20 09:12:47;;;;;;;15.90;6.70;;;4.10;99.90;;;5.26;100.00;101751.25;5012603;28;20038;-85
2021/12/20 09:15:18;;;;;;;24.58;6.43;;;4.30;99.90;;;5.44;100.00;101755.16;5012382;28;20516;-81
2021/12/20 09:17:53;;;;;;;15.43;5.20;;;4.50;99.90;;;5.53;100.00;101758.06;5012151;28;20030;-83
2021/12/20 09:20:28;;;;;;;22.92;5.60;;;4.50;99.90;;;5.72;100.00;101758.91;4994734;28;20116;-84
2021/12/20 09:23:04;;;;;;;23.55;5.70;;;4.70;99.90;;;5.95;100.00;101754.47;4997493;28;20038;-78
2021/12/20 09:25:38;;;;;;;26.08;6.07;;;4.90;99.90;;;6.18;100.00;101764.66;4992476;28;20053;-82
2021/12/20 09:28:10;;;;;;;24.63;6.43;;;5.10;99.90;;;6.40;100.00;101762.06;4992766;28;20084;-81
2021/12/20 09:30:40;;;;;;;28.13;6.38;;;5.30;99.90;;;6.47;100.00;101765.28;4975883;28;20625;-82
2021/12/20 09:33:06;;;;;;;21.15;6.00;;;5.40;99.90;;;6.40;100.00;101775.94;4991975;28;20034;-83
2021/12/20 09:35:39;;;;;;;27.33;5.00;;;5.50;99.90;;;6.62;100.00;101778.88;4993263;28;20046;-83
2021/12/20 09:38:09;;;;;;;32.15;5.25;;;5.60;99.90;;;6.69;97.95;101768.19;4993176;28;20101;-81
2021/12/20 09:40:40;;;;;;;20.27;4.60;;;5.70;99.90;;;6.61;97.85;101774.47;4992047;28;20033;-84
2021/12/20 09:43:13;;;;;;;27.27;5.45;;;5.80;99.90;;;6.80;97.46;101774.41;4993092;28;20106;-84
2021/12/20 09:45:45;;;;;;;29.02;6.03;;;5.90;99.90;;;6.97;94.83;101771.84;4992957;28;20415;-81
2021/12/20 09:48:12;;;;;;;28.75;5.75;;;6.00;99.90;;;6.98;95.91;101775.44;4992077;28;20026;-82
2021/12/20 09:50:39;;;;;;;26.50;5.82;;;6.00;99.90;;;6.87;94.31;101769.28;4994240;28;20030;-82
2021/12/20 09:53:09;;;;;;;35.60;8.10;;;6.10;99.90;;;6.75;95.62;101764.19;4996510;28;20033;-82
2021/12/20 09:55:51;;;;;;;29.08;6.07;;;6.00;99.90;;;7.02;95.85;101773.72;4997283;28;20030;-82
2021/12/20 09:58:22;;;;;;;25.27;5.60;;;6.20;99.90;;;7.03;95.41;101776.16;4997437;28;20026;-81
2021/12/20 10:00:57;;;;;;;30.75;6.97;;;6.20;99.90;;;7.11;93.89;101771.88;4979953;28;20437;-83
2021/12/20 10:03:24;;;;;;;23.85;5.40;;;6.30;99.90;;;7.16;93.19;101766.22;4980189;28;20052;-82
2021/12/20 10:05:56;;;;;;;26.98;5.88;;;6.30;99.90;;;7.19;93.49;101768.38;4997146;28;20046;-82
2021/12/20 10:08:32;;;;;;;22.35;5.80;;;6.30;99.90;;;6.97;94.28;101766.28;5001747;28;20037;-84
2021/12/20 10:11:24;;;;;;;31.30;6.50;;;6.30;99.90;;;6.83;94.05;101769.06;5017506;28;20054;-82
2021/12/20 10:14:16;;;;;;;29.33;6.88;;;6.20;99.90;;;7.02;94.38;101771.75;5016204;28;20033;-82
2021/12/20 10:16:44;;;;;;;22.10;5.82;;;6.30;99.90;;;6.87;94.58;101772.84;4997098;28;20427;-82
2021/12/20 10:19:34;;;;;;;19.85;5.47;;;6.20;99.90;;;7.11;94.78;101769.91;4997509;28;20116;-82
2021/12/20 10:22:30;;;;;;;29.13;6.80;;;6.30;99.90;;;7.16;93.09;101766.22;4987470;28;20040;-83
2021/12/20 10:24:58;;;;;;;27.70;6.25;;;6.40;99.90;;;7.16;93.02;101769.00;5015053;28;20041;-83
2021/12/20 10:27:36;;;;;;;26.63;5.88;;;6.40;99.90;;;7.26;92.48;101771.53;4998532;28;20068;-81
2021/12/20 10:30:30;;;;;;;21.45;6.15;;;6.50;99.90;;;7.46;92.11;101778.66;5015852;28;20065;-83
2021/12/20 10:32:58;;;;;;;21.83;5.97;;;6.50;99.90;;;7.69;91.12;101772.88;5011265;28;20042;-82
2021/12/20 10:35:57;;;;;;;25.73;6.60;;;6.60;99.90;;;7.78;89.06;101771.00;5014977;28;20022;-84
2021/12/20 10:38:56;;;;;;;33.13;7.03;;;6.80;99.90;;;7.84;90.38;101772.50;5007535;28;20450;-81